createdAt,value
2022-10-20T00:04:07.329Z,12.20
2022-10-20T00:06:35.818Z,12.30
2022-10-20T00:09:05.384Z,12.30
2022-10-20T00:11:34.628Z,12.40
2022-10-20T00:14:04.851Z,12.40
2022-10-20T00:16:36.088Z,12.40
2022-10-20T00:19:04.606Z,12.30
2022-10-20T00:21:35.292Z,12.30
2022-10-20T00:24:04.593Z,12.30
2022-10-20T00:26:34.079Z,12.20
2022-10-20T00:29:05.076Z,12.30
2022-10-20T00:31:33.640Z,12.30
2022-10-20T00:34:04.306Z,12.20
2022-10-20T00:36:35.519Z,12.20
2022-10-20T00:39:06.591Z,12.30
2022-10-20T00:41:35.519Z,12.20
2022-10-20T00:44:43.409Z,12.20
2022-10-20T00:47:14.230Z,12.10
2022-10-20T00:49:42.780Z,11.70
2022-10-20T00:52:11.828Z,12.10
2022-10-20T00:54:40.091Z,12.10
2022-10-20T00:57:08.091Z,12.00
2022-10-20T00:59:38.346Z,12.00
2022-10-20T01:02:09.900Z,12.00
2022-10-20T01:04:39.119Z,12.00
2022-10-20T01:07:07.656Z,12.00
2022-10-20T01:09:36.820Z,11.90
2022-10-20T01:12:13.276Z,12.00
2022-10-20T01:14:53.069Z,12.00
2022-10-20T01:17:34.856Z,11.90
2022-10-20T01:20:30.736Z,11.90
2022-10-20T01:23:31.633Z,11.90
2022-10-20T01:26:18.266Z,11.80
2022-10-20T01:28:53.929Z,12.10
2022-10-20T01:31:31.262Z,11.70
2022-10-20T01:34:07.704Z,11.80
2022-10-20T01:36:42.109Z,11.70
2022-10-20T01:39:17.605Z,11.80
2022-10-20T01:41:53.115Z,11.80
2022-10-20T01:44:25.901Z,11.80
2022-10-20T01:46:55.100Z,11.80
2022-10-20T01:49:26.609Z,11.90
2022-10-20T01:51:56.406Z,11.80
2022-10-20T01:54:29.032Z,11.70
2022-10-20T01:57:13.545Z,11.70
2022-10-20T01:59:56.594Z,11.80
2022-10-20T02:02:40.561Z,11.80
2022-10-20T02:05:43.737Z,12.00
2022-10-20T02:08:15.642Z,11.80
2022-10-20T02:10:47.522Z,11.70
2022-10-20T02:13:17.208Z,11.70
2022-10-20T02:15:51.869Z,11.60
2022-10-20T02:18:22.755Z,11.60
2022-10-20T02:20:53.897Z,11.60
2022-10-20T02:23:22.172Z,11.60
2022-10-20T02:25:55.314Z,11.60
2022-10-20T02:28:24.215Z,11.60
2022-10-20T02:30:57.343Z,11.60
2022-10-20T02:33:25.886Z,11.70
2022-10-20T02:35:58.220Z,11.70
2022-10-20T02:38:26.574Z,11.70
2022-10-20T02:40:56.422Z,11.70
2022-10-20T02:43:24.543Z,11.60
2022-10-20T02:45:52.630Z,11.50
2022-10-20T02:48:24.123Z,11.60
2022-10-20T02:50:54.390Z,11.60
2022-10-20T02:53:22.574Z,11.70
2022-10-20T02:55:52.691Z,11.70
2022-10-20T02:58:20.874Z,11.70
2022-10-20T03:00:51.114Z,11.70
2022-10-20T03:03:19.559Z,11.80
2022-10-20T03:05:49.280Z,11.90
2022-10-20T03:08:17.835Z,11.90
2022-10-20T03:10:45.943Z,11.80
2022-10-20T03:13:15.639Z,11.80
2022-10-20T03:15:47.663Z,11.80
2022-10-20T03:18:15.759Z,11.80
2022-10-20T03:20:45.124Z,11.80
2022-10-20T03:23:17.697Z,11.70
2022-10-20T03:25:51.026Z,11.70
2022-10-20T03:28:19.246Z,11.60
2022-10-20T03:30:47.459Z,11.60
2022-10-20T03:33:15.611Z,11.70
2022-10-20T03:35:43.832Z,11.70
2022-10-20T03:40:41.729Z,11.60
2022-10-20T03:43:15.290Z,11.60
2022-10-20T03:45:43.470Z,11.60
2022-10-20T03:48:12.362Z,11.60
2022-10-20T03:50:41.153Z,11.60
2022-10-20T03:53:09.677Z,11.60
2022-10-20T03:55:39.242Z,11.60
2022-10-20T03:58:08.756Z,11.60
2022-10-20T04:00:36.909Z,11.60
2022-10-20T04:03:05.312Z,11.60
2022-10-20T04:05:33.436Z,11.60
2022-10-20T04:08:01.622Z,11.60
2022-10-20T04:10:29.761Z,11.50
2022-10-20T04:13:00.475Z,11.50
2022-10-20T04:15:30.051Z,11.40
2022-10-20T04:17:58.116Z,11.40
2022-10-20T04:20:26.317Z,11.50
2022-10-20T04:22:54.491Z,11.60
2022-10-20T04:25:22.611Z,11.60
2022-10-20T04:27:50.833Z,11.70
2022-10-20T04:30:19.300Z,11.70
2022-10-20T04:32:48.727Z,11.70
2022-10-20T04:35:16.904Z,11.60
2022-10-20T04:37:45.154Z,11.60
2022-10-20T04:40:13.673Z,11.60
2022-10-20T04:42:41.835Z,11.50
2022-10-20T04:45:10.954Z,11.50
2022-10-20T04:47:39.521Z,11.50
2022-10-20T04:50:11.663Z,11.50
2022-10-20T04:52:39.902Z,11.60
2022-10-20T04:55:10.870Z,11.50
2022-10-20T04:57:39.398Z,11.50
2022-10-20T05:00:08.891Z,11.50
2022-10-20T05:02:39.490Z,11.50
2022-10-20T05:05:08.363Z,11.50
2022-10-20T05:07:40.295Z,11.50
2022-10-20T05:10:09.587Z,11.60
2022-10-20T05:12:38.006Z,11.60
2022-10-20T05:15:07.423Z,11.40
2022-10-20T05:17:35.671Z,11.40
2022-10-20T05:20:03.955Z,11.50
2022-10-20T05:22:33.081Z,11.50
2022-10-20T05:25:18.499Z,11.50
2022-10-20T05:27:51.262Z,11.50
2022-10-20T05:30:19.874Z,11.50
2022-10-20T05:32:48.411Z,11.50
2022-10-20T05:35:17.840Z,11.60
2022-10-20T05:37:46.192Z,11.40
2022-10-20T05:40:16.931Z,11.40
2022-10-20T05:42:46.822Z,11.40
2022-10-20T05:45:15.653Z,11.40
2022-10-20T05:47:44.103Z,11.30
2022-10-20T05:50:12.552Z,11.30
2022-10-20T05:52:40.817Z,11.40
2022-10-20T05:55:10.721Z,11.50
2022-10-20T05:57:40.188Z,11.40
2022-10-20T06:00:09.833Z,11.30
2022-10-20T06:06:31.003Z,11.10
2022-10-20T06:09:01.041Z,11.50
2022-10-20T06:13:59.427Z,11.10
2022-10-20T06:16:29.927Z,11.10
2022-10-20T06:19:00.817Z,11.40
2022-10-20T06:21:31.554Z,11.10
2022-10-20T06:24:03.249Z,11.00
2022-10-20T06:26:39.216Z,11.00
2022-10-20T06:29:12.133Z,11.00
2022-10-20T06:31:41.987Z,10.70
2022-10-20T06:34:13.698Z,11.20
2022-10-20T06:36:43.195Z,11.20
2022-10-20T06:39:16.048Z,11.30
2022-10-20T06:41:50.291Z,11.20
2022-10-20T06:44:23.008Z,11.10
2022-10-20T06:46:52.760Z,11.20
2022-10-20T06:51:49.619Z,11.10
2022-10-20T06:54:18.569Z,11.10
2022-10-20T06:59:15.590Z,11.10
2022-10-20T07:01:45.614Z,11.10
2022-10-20T07:04:16.293Z,11.00
2022-10-20T07:06:46.486Z,11.10
2022-10-20T07:09:17.209Z,11.10
2022-10-20T07:14:15.167Z,11.20
2022-10-20T07:16:44.920Z,11.10
2022-10-20T07:19:16.093Z,11.00
2022-10-20T07:24:15.695Z,11.10
2022-10-20T07:26:44.311Z,11.20
2022-10-20T07:29:13.862Z,11.20
2022-10-20T07:31:45.347Z,11.30
2022-10-20T07:34:30.733Z,11.20
2022-10-20T07:36:59.240Z,11.20
2022-10-20T07:39:28.028Z,11.00
2022-10-20T07:41:56.482Z,11.10
2022-10-20T07:44:24.605Z,11.50
2022-10-20T07:46:54.164Z,11.20
2022-10-20T07:49:43.495Z,11.30
2022-10-20T07:52:10.946Z,11.30
2022-10-20T07:57:08.122Z,11.40
2022-10-20T07:59:36.415Z,11.40
2022-10-20T08:02:08.063Z,11.40
2022-10-20T08:04:38.854Z,11.60
2022-10-20T08:07:07.117Z,11.50
2022-10-20T08:09:36.565Z,11.50
2022-10-20T08:12:07.241Z,11.70
2022-10-20T08:17:08.452Z,11.80
2022-10-20T08:19:42.456Z,11.60
2022-10-20T08:22:10.853Z,11.50
2022-10-20T08:24:41.500Z,11.50
2022-10-20T08:27:11.640Z,11.50
2022-10-20T08:29:55.068Z,11.60
2022-10-20T08:32:30.057Z,11.60
2022-10-20T08:34:58.495Z,11.70
2022-10-20T08:37:46.212Z,11.70
2022-10-20T08:40:25.870Z,11.70
2022-10-20T08:42:54.931Z,11.70
2022-10-20T08:45:41.281Z,11.70
2022-10-20T08:48:36.736Z,11.80
2022-10-20T08:53:48.167Z,12.00
2022-10-20T08:56:18.161Z,12.50
2022-10-20T08:58:47.748Z,12.50
2022-10-20T09:01:22.267Z,12.40
2022-10-20T09:03:56.906Z,12.40
2022-10-20T09:06:27.795Z,12.40
2022-10-20T09:09:01.507Z,12.50
2022-10-20T09:11:38.016Z,12.50
2022-10-20T09:14:06.322Z,12.50
2022-10-20T09:19:30.399Z,12.20
2022-10-20T09:22:00.206Z,12.20
2022-10-20T09:24:31.383Z,12.20
2022-10-20T09:27:20.054Z,12.10
2022-10-20T09:29:48.282Z,12.10
2022-10-20T09:35:26.036Z,12.20
2022-10-20T09:38:03.099Z,12.20
2022-10-20T09:40:31.613Z,12.30
2022-10-20T09:43:03.478Z,12.30
2022-10-20T09:45:35.780Z,12.20
2022-10-20T09:48:18.683Z,12.40
2022-10-20T09:50:52.718Z,12.40
2022-10-20T09:53:23.473Z,12.40
2022-10-20T09:55:52.876Z,12.40
2022-10-20T09:58:28.607Z,12.40
2022-10-20T10:01:00.049Z,12.20
2022-10-20T10:03:29.262Z,12.20
2022-10-20T10:06:01.854Z,12.30
2022-10-20T10:08:43.111Z,12.60
2022-10-20T10:11:17.609Z,12.70
2022-10-20T10:13:47.705Z,12.70
2022-10-20T10:16:20.685Z,12.70
2022-10-20T10:18:57.794Z,12.60
2022-10-20T10:21:30.934Z,12.60
2022-10-20T10:24:02.075Z,12.50
2022-10-20T10:26:46.370Z,12.50
2022-10-20T10:29:26.627Z,12.60
2022-10-20T10:32:00.269Z,12.60
2022-10-20T10:34:40.401Z,12.60
2022-10-20T10:37:17.220Z,12.60
2022-10-20T10:39:50.543Z,12.60
2022-10-20T10:42:49.755Z,12.70
2022-10-20T10:45:48.790Z,12.70
2022-10-20T10:48:48.031Z,12.80
2022-10-20T10:51:25.982Z,12.80
2022-10-20T10:54:11.854Z,12.80
2022-10-20T10:56:49.812Z,13.00
2022-10-20T10:59:24.519Z,12.90
2022-10-20T11:02:07.742Z,12.90
2022-10-20T11:05:01.589Z,13.00
2022-10-20T11:07:39.191Z,12.90
2022-10-20T11:10:19.419Z,13.00
2022-10-20T11:13:02.943Z,13.00
2022-10-20T11:15:45.378Z,13.20
2022-10-20T11:18:23.464Z,13.20
2022-10-20T11:21:02.445Z,13.30
2022-10-20T11:23:59.662Z,13.30
2022-10-20T11:26:36.252Z,13.40
2022-10-20T11:29:10.294Z,13.40
2022-10-20T11:31:43.376Z,13.40
2022-10-20T11:37:21.622Z,13.50
2022-10-20T11:39:57.274Z,13.50
2022-10-20T11:42:32.602Z,13.60
2022-10-20T11:45:02.404Z,13.60
2022-10-20T11:47:37.674Z,13.50
2022-10-20T11:50:08.050Z,13.50
2022-10-20T11:53:00.600Z,13.60
2022-10-20T11:56:03.292Z,13.50
2022-10-20T11:58:50.411Z,13.50
2022-10-20T12:01:30.135Z,13.60
2022-10-20T12:04:23.919Z,13.50
2022-10-20T12:07:31.577Z,13.50
2022-10-20T12:10:27.522Z,13.40
2022-10-20T12:13:08.540Z,13.30
2022-10-20T12:15:49.982Z,13.20
2022-10-20T12:18:27.543Z,13.10
2022-10-20T12:21:03.487Z,13.10
2022-10-20T12:24:02.356Z,15.70
2022-10-20T12:27:28.227Z,13.10
2022-10-20T12:30:05.795Z,13.10
2022-10-20T12:32:58.561Z,13.40
2022-10-20T12:35:58.543Z,13.10
2022-10-20T12:38:27.869Z,13.20
2022-10-20T12:41:01.252Z,13.20
2022-10-20T12:43:53.929Z,13.20
2022-10-20T12:46:27.133Z,13.20
2022-10-20T12:49:06.667Z,13.20
2022-10-20T12:51:48.857Z,13.30
2022-10-20T12:54:26.441Z,13.30
2022-10-20T12:57:04.729Z,13.30
2022-10-20T12:59:42.191Z,13.30
2022-10-20T13:02:48.221Z,13.00
2022-10-20T13:05:45.276Z,13.20
2022-10-20T13:08:35.560Z,13.20
2022-10-20T13:11:43.015Z,13.20
2022-10-20T13:14:47.035Z,13.20
2022-10-20T13:17:47.268Z,13.20
2022-10-20T13:20:36.957Z,13.30
2022-10-20T13:23:05.612Z,13.30
2022-10-20T13:25:43.817Z,13.30
2022-10-20T13:28:26.175Z,13.30
2022-10-20T13:31:20.667Z,13.30
2022-10-20T13:34:20.039Z,13.40
2022-10-20T13:37:08.611Z,13.40
2022-10-20T13:39:45.913Z,13.30
2022-10-20T13:42:31.827Z,13.30
2022-10-20T13:45:08.648Z,13.30
2022-10-20T13:47:49.726Z,13.30
2022-10-20T13:50:24.342Z,13.40
2022-10-20T13:53:00.049Z,13.50
2022-10-20T13:55:30.930Z,13.40
2022-10-20T13:58:05.766Z,13.40
2022-10-20T14:00:36.212Z,13.40
2022-10-20T14:03:16.110Z,13.30
2022-10-20T14:05:48.493Z,13.40
2022-10-20T14:08:23.437Z,13.40
2022-10-20T14:10:56.457Z,13.40
2022-10-20T14:13:36.166Z,13.60
2022-10-20T14:16:08.413Z,13.50
2022-10-20T14:18:42.883Z,13.50
2022-10-20T14:21:17.948Z,13.50
2022-10-20T14:23:55.411Z,13.50
2022-10-20T14:26:33.564Z,13.40
2022-10-20T14:29:07.366Z,13.50
2022-10-20T14:31:39.456Z,13.40
2022-10-20T14:34:17.683Z,13.50
2022-10-20T14:36:46.306Z,13.50
2022-10-20T14:39:27.301Z,13.50
2022-10-20T14:42:05.542Z,13.50
2022-10-20T14:44:41.600Z,13.50
2022-10-20T14:47:14.906Z,13.50
2022-10-20T14:49:51.527Z,13.30
2022-10-20T14:52:23.553Z,13.30
2022-10-20T14:54:54.882Z,13.30
2022-10-20T15:00:34.016Z,13.30
2022-10-20T15:03:08.257Z,13.30
2022-10-20T15:05:46.959Z,13.20
2022-10-20T15:08:30.683Z,13.20
2022-10-20T15:11:00.652Z,13.20
2022-10-20T15:13:32.576Z,13.20
2022-10-20T15:16:15.897Z,13.20
2022-10-20T15:18:44.317Z,13.20
2022-10-20T15:21:15.423Z,13.30
2022-10-20T15:23:45.067Z,13.30
2022-10-20T15:26:16.162Z,13.30
2022-10-20T15:28:48.795Z,13.50
2022-10-20T15:31:26.584Z,13.60
2022-10-20T15:33:59.154Z,13.40
2022-10-20T15:36:32.188Z,13.30
2022-10-20T15:39:04.573Z,13.10
2022-10-20T15:41:35.806Z,13.10
2022-10-20T15:44:09.132Z,13.30
2022-10-20T15:46:37.655Z,13.60
2022-10-20T15:51:39.951Z,13.50
2022-10-20T15:54:08.869Z,13.40
2022-10-20T15:56:44.381Z,13.40
2022-10-20T15:59:18.786Z,13.30
2022-10-20T16:04:23.137Z,13.30
2022-10-20T16:06:58.923Z,13.30
2022-10-20T16:09:30.295Z,13.30
2022-10-20T16:12:12.505Z,13.30
2022-10-20T16:14:41.015Z,13.20
2022-10-20T16:17:09.175Z,13.10
2022-10-20T16:19:40.162Z,13.10
2022-10-20T16:22:10.553Z,13.10
2022-10-20T16:24:38.746Z,13.20
2022-10-20T16:27:10.504Z,13.20
2022-10-20T16:29:44.118Z,13.30
2022-10-20T16:32:17.290Z,13.40
2022-10-20T16:34:45.440Z,13.30
2022-10-20T16:42:32.680Z,13.10
2022-10-20T16:45:06.760Z,13.10
2022-10-20T16:52:56.312Z,13.00
2022-10-20T16:55:54.960Z,13.00
2022-10-20T16:58:57.314Z,12.90
2022-10-20T17:06:27.628Z,12.90
2022-10-20T17:11:27.328Z,12.90
2022-10-20T17:13:57.637Z,12.90
2022-10-20T17:16:32.886Z,12.90
2022-10-20T17:19:03.392Z,12.90
2022-10-20T17:21:33.774Z,13.10
2022-10-20T17:24:02.680Z,13.10
2022-10-20T17:26:34.094Z,13.10
2022-10-20T17:32:00.310Z,13.20
2022-10-20T17:34:38.468Z,13.30
2022-10-20T17:39:41.891Z,13.40
2022-10-20T17:52:18.561Z,13.40
2022-10-20T17:54:47.317Z,13.50
2022-10-20T17:57:26.248Z,13.30
2022-10-20T17:59:59.411Z,13.10
2022-10-20T18:02:34.170Z,13.00
2022-10-20T18:05:03.164Z,13.10
2022-10-20T18:07:58.744Z,13.10
2022-10-20T18:10:27.596Z,13.20
2022-10-20T18:12:56.259Z,13.10
2022-10-20T18:15:38.166Z,13.20
2022-10-20T18:18:09.540Z,13.20
2022-10-20T18:21:04.138Z,13.20
2022-10-20T18:23:49.189Z,13.30
2022-10-20T18:26:21.717Z,13.10
2022-10-20T18:28:50.490Z,13.00
2022-10-20T18:31:22.905Z,13.10
2022-10-20T18:34:04.369Z,13.10
2022-10-20T18:36:39.166Z,13.20
2022-10-20T18:39:11.132Z,13.30
2022-10-20T18:41:41.519Z,13.30
2022-10-20T18:44:13.110Z,13.30
2022-10-20T18:46:51.240Z,13.30
2022-10-20T18:49:21.951Z,13.40
2022-10-20T18:51:55.442Z,13.40
2022-10-20T18:54:24.396Z,13.10
2022-10-20T18:56:57.412Z,13.30
2022-10-20T18:59:25.499Z,13.30
2022-10-20T19:02:02.122Z,13.30
2022-10-20T19:04:30.304Z,13.30
2022-10-20T19:06:58.706Z,13.30
2022-10-20T19:09:27.150Z,13.40
2022-10-20T19:12:10.721Z,13.40
2022-10-20T19:14:41.937Z,13.50
2022-10-20T19:17:11.960Z,13.50
2022-10-20T19:19:41.772Z,13.40
2022-10-20T19:22:14.218Z,13.20
2022-10-20T19:27:28.024Z,13.00
2022-10-20T19:40:13.928Z,13.50
2022-10-20T19:42:42.797Z,13.60
2022-10-20T19:52:58.006Z,13.20
2022-10-20T19:58:02.626Z,13.20
2022-10-20T20:00:32.679Z,13.10
2022-10-20T20:03:05.670Z,13.10
2022-10-20T20:05:37.222Z,13.20
2022-10-20T20:15:45.264Z,13.50
2022-10-20T20:18:19.589Z,13.30
2022-10-20T20:20:49.417Z,13.20
2022-10-20T20:23:26.111Z,13.20
2022-10-20T20:26:06.241Z,13.20
2022-10-20T20:28:59.841Z,13.10
2022-10-20T20:31:34.666Z,13.10
2022-10-20T20:34:11.141Z,13.10
2022-10-20T20:36:40.659Z,13.20
2022-10-20T20:39:10.361Z,13.20
2022-10-20T20:41:38.885Z,13.40
2022-10-20T20:46:37.583Z,13.60
2022-10-20T20:49:13.715Z,13.70
2022-10-20T20:54:11.556Z,13.50
2022-10-20T20:56:39.954Z,13.60
2022-10-20T20:59:17.316Z,13.70
2022-10-20T21:01:48.125Z,13.70
2022-10-20T21:04:17.985Z,13.50
2022-10-20T21:07:01.751Z,13.50
2022-10-20T21:09:30.949Z,13.60
2022-10-20T21:11:59.292Z,13.70
2022-10-20T21:14:28.152Z,13.70
2022-10-20T21:16:56.339Z,13.60
2022-10-20T21:19:33.658Z,13.60
2022-10-20T21:22:11.668Z,13.70
2022-10-20T21:24:48.399Z,13.80
2022-10-20T21:27:17.789Z,13.90
2022-10-20T21:32:18.411Z,13.80
2022-10-20T21:34:50.028Z,13.70
2022-10-20T21:37:21.780Z,13.60
2022-10-20T21:42:35.721Z,13.50
2022-10-20T21:45:07.212Z,13.60
2022-10-20T21:47:38.100Z,13.50
2022-10-20T21:50:11.197Z,13.60
2022-10-20T21:52:42.526Z,13.60
2022-10-20T21:55:10.727Z,13.80
2022-10-20T21:57:42.996Z,13.70
2022-10-20T22:00:13.935Z,13.70
2022-10-20T22:02:55.633Z,13.60
2022-10-20T22:05:25.697Z,13.60
2022-10-20T22:07:53.886Z,13.60
2022-10-20T22:10:24.954Z,13.70
2022-10-20T22:12:55.895Z,13.70
2022-10-20T22:15:24.278Z,13.60
2022-10-20T22:17:52.610Z,13.60
2022-10-20T22:22:53.883Z,13.50
2022-10-20T22:25:27.421Z,13.50
2022-10-20T22:27:56.512Z,13.50
2022-10-20T22:30:25.966Z,13.50
2022-10-20T22:32:54.192Z,13.50
2022-10-20T22:37:56.305Z,13.40
2022-10-20T22:40:26.840Z,13.40
2022-10-20T22:43:00.726Z,13.50
2022-10-20T22:45:29.356Z,13.40
2022-10-20T22:48:03.893Z,13.40
2022-10-20T22:50:33.469Z,13.50
2022-10-20T22:53:02.119Z,13.50
2022-10-20T22:55:33.308Z,13.50
2022-10-20T22:58:05.336Z,13.60
2022-10-20T23:00:34.208Z,13.50
2022-10-20T23:03:05.437Z,13.50
2022-10-20T23:05:38.597Z,13.50
2022-10-20T23:08:06.934Z,13.60
2022-10-20T23:10:35.219Z,13.90
2022-10-20T23:13:03.488Z,13.90
2022-10-20T23:18:00.224Z,14.00
2022-10-20T23:20:28.404Z,13.90
2022-10-20T23:22:58.562Z,13.80
2022-10-20T23:25:37.043Z,13.80
2022-10-20T23:28:05.684Z,14.00
2022-10-20T23:30:36.169Z,14.00
2022-10-20T23:33:07.588Z,13.80
2022-10-20T23:35:39.259Z,13.80
2022-10-20T23:38:12.490Z,14.00
2022-10-20T23:40:50.782Z,14.10
2022-10-20T23:43:19.079Z,14.00
2022-10-20T23:45:50.817Z,14.20
2022-10-20T23:48:19.497Z,14.30
2022-10-20T23:50:51.664Z,14.20
2022-10-20T23:53:21.382Z,14.20
2022-10-20T23:55:49.531Z,14.10
2022-10-20T23:58:21.032Z,14.10
